createdAt,value
2022-07-29T00:00:48.938Z,18.45
2022-07-29T00:03:36.099Z,18.43
2022-07-29T00:06:27.317Z,18.63
2022-07-29T00:09:14.254Z,18.55
2022-07-29T00:12:02.184Z,18.49
2022-07-29T00:14:49.116Z,18.00
2022-07-29T00:17:36.160Z,17.89
2022-07-29T00:20:23.456Z,18.25
2022-07-29T00:23:13.524Z,17.99
2022-07-29T00:26:00.864Z,17.73
2022-07-29T00:28:47.786Z,18.30
2022-07-29T00:31:34.808Z,17.81
2022-07-29T00:34:48.345Z,17.62
2022-07-29T00:37:35.309Z,17.73
2022-07-29T00:40:23.537Z,17.86
2022-07-29T00:43:11.951Z,17.77
2022-07-29T00:45:58.924Z,17.69
2022-07-29T00:48:46.136Z,17.62
2022-07-29T00:51:33.362Z,17.76
2022-07-29T00:54:21.396Z,17.75
2022-07-29T00:57:09.345Z,17.69
2022-07-29T00:59:56.869Z,18.07
2022-07-29T01:02:44.847Z,18.29
2022-07-29T01:05:50.428Z,18.23
2022-07-29T01:08:38.946Z,17.88
2022-07-29T01:11:26.478Z,17.59
2022-07-29T01:14:14.200Z,17.88
2022-07-29T01:17:11.737Z,17.97
2022-07-29T01:20:31.555Z,17.67
2022-07-29T01:23:37.761Z,17.62
2022-07-29T01:26:46.483Z,17.55
2022-07-29T01:29:42.491Z,17.77
2022-07-29T01:32:36.566Z,17.56
2022-07-29T01:35:32.980Z,17.77
2022-07-29T01:38:24.266Z,17.70
2022-07-29T01:41:15.645Z,17.90
2022-07-29T01:44:28.472Z,17.96
2022-07-29T01:47:21.481Z,17.42
2022-07-29T01:50:13.719Z,17.08
2022-07-29T01:53:05.228Z,17.04
2022-07-29T01:55:53.912Z,17.28
2022-07-29T01:58:44.362Z,17.22
2022-07-29T02:01:33.738Z,17.13
2022-07-29T02:04:29.227Z,17.07
2022-07-29T02:07:22.885Z,17.17
2022-07-29T02:10:12.362Z,17.30
2022-07-29T02:13:01.137Z,17.17
2022-07-29T02:15:50.722Z,17.24
2022-07-29T02:18:39.895Z,17.11
2022-07-29T02:21:29.182Z,17.17
2022-07-29T02:24:19.419Z,17.03
2022-07-29T02:27:08.437Z,17.57
2022-07-29T02:29:57.625Z,17.69
2022-07-29T02:32:47.708Z,17.41
2022-07-29T02:35:35.734Z,17.12
2022-07-29T02:38:43.253Z,17.07
2022-07-29T02:41:34.466Z,17.18
2022-07-29T02:44:25.017Z,17.09
2022-07-29T02:47:16.734Z,17.09
2022-07-29T02:50:11.023Z,17.46
2022-07-29T02:53:04.393Z,17.64
2022-07-29T02:56:00.824Z,17.93
2022-07-29T02:58:57.138Z,18.03
2022-07-29T03:01:46.055Z,17.86
2022-07-29T03:04:35.400Z,17.71
2022-07-29T03:07:23.118Z,17.69
2022-07-29T03:10:10.989Z,17.70
2022-07-29T03:13:01.717Z,17.94
2022-07-29T03:15:49.388Z,18.04
2022-07-29T03:18:37.570Z,17.86
2022-07-29T03:21:25.724Z,17.61
2022-07-29T03:24:26.002Z,17.38
2022-07-29T03:27:13.212Z,17.36
2022-07-29T03:30:00.171Z,17.19
2022-07-29T03:32:47.113Z,17.16
2022-07-29T03:35:34.114Z,17.22
2022-07-29T03:38:25.134Z,17.04
2022-07-29T03:41:15.574Z,16.97
2022-07-29T03:44:03.335Z,17.01
2022-07-29T03:46:53.085Z,17.04
2022-07-29T03:49:41.913Z,17.09
2022-07-29T03:52:29.291Z,17.09
2022-07-29T03:55:17.094Z,17.10
2022-07-29T03:58:04.667Z,17.10
2022-07-29T04:00:51.967Z,16.75
2022-07-29T04:03:40.123Z,16.86
2022-07-29T04:06:27.154Z,17.04
2022-07-29T04:09:14.173Z,16.79
2022-07-29T04:12:04.079Z,16.69
2022-07-29T04:14:51.545Z,16.75
2022-07-29T04:17:38.888Z,17.13
2022-07-29T04:20:25.863Z,17.04
2022-07-29T04:23:13.055Z,17.25
2022-07-29T04:26:02.334Z,17.03
2022-07-29T04:28:50.124Z,17.04
2022-07-29T04:31:37.205Z,16.94
2022-07-29T04:34:28.207Z,17.02
2022-07-29T04:37:15.336Z,16.92
2022-07-29T04:40:02.261Z,16.35
2022-07-29T04:42:49.625Z,16.47
2022-07-29T04:45:36.636Z,16.63
2022-07-29T04:48:28.475Z,17.00
2022-07-29T04:51:16.752Z,17.27
2022-07-29T04:54:03.898Z,17.08
2022-07-29T04:56:50.963Z,17.22
2022-07-29T04:59:37.947Z,17.21
2022-07-29T05:02:25.073Z,17.15
2022-07-29T05:05:12.100Z,17.03
2022-07-29T05:08:02.120Z,18.00
2022-07-29T05:10:49.266Z,17.91
2022-07-29T05:13:45.153Z,17.70
2022-07-29T05:16:33.380Z,18.10
2022-07-29T05:19:20.417Z,18.82
2022-07-29T05:22:07.548Z,18.69
2022-07-29T05:24:54.666Z,18.43
2022-07-29T05:27:41.638Z,19.41
2022-07-29T05:30:28.901Z,19.85
2022-07-29T05:33:34.230Z,20.06
2022-07-29T05:36:23.003Z,20.39
2022-07-29T05:39:10.032Z,20.35
2022-07-29T05:41:57.328Z,19.20
2022-07-29T05:44:44.535Z,19.86
2022-07-29T05:47:31.678Z,19.82
2022-07-29T05:50:18.789Z,20.46
2022-07-29T05:53:19.364Z,20.42
2022-07-29T05:56:08.426Z,20.55
2022-07-29T05:58:55.507Z,20.50
2022-07-29T06:01:42.855Z,20.21
2022-07-29T06:04:30.072Z,20.80
2022-07-29T06:07:17.334Z,21.82
2022-07-29T06:10:04.807Z,21.56
2022-07-29T06:12:51.971Z,21.09
2022-07-29T06:15:39.536Z,21.24
2022-07-29T06:18:27.025Z,21.78
2022-07-29T06:21:14.291Z,22.39
2022-07-29T06:24:01.424Z,22.17
2022-07-29T06:26:48.650Z,22.75
2022-07-29T06:29:35.757Z,22.94
2022-07-29T06:32:23.000Z,23.46
2022-07-29T06:38:30.653Z,21.61
2022-07-29T06:41:20.875Z,22.23
2022-07-29T06:44:08.086Z,22.40
2022-07-29T06:46:55.840Z,23.26
2022-07-29T06:49:43.235Z,22.41
2022-07-29T06:52:30.499Z,23.24
2022-07-29T06:55:25.229Z,24.20
2022-07-29T06:58:12.958Z,22.22
2022-07-29T07:01:03.813Z,22.68
2022-07-29T07:03:50.907Z,22.91
2022-07-29T07:06:39.034Z,23.36
2022-07-29T07:09:26.633Z,22.68
2022-07-29T07:12:27.336Z,21.44
2022-07-29T07:15:14.285Z,22.35
2022-07-29T07:18:01.457Z,22.40
2022-07-29T07:20:49.022Z,21.00
2022-07-29T07:23:36.181Z,20.90
2022-07-29T07:26:23.320Z,20.24
2022-07-29T07:29:10.314Z,20.14
2022-07-29T07:32:00.865Z,20.62
2022-07-29T07:34:48.326Z,20.16
2022-07-29T07:37:35.821Z,20.15
2022-07-29T07:40:22.821Z,20.26
2022-07-29T07:43:09.957Z,20.00
2022-07-29T07:45:57.083Z,20.38
2022-07-29T07:48:44.131Z,20.08
2022-07-29T07:51:31.142Z,20.29
2022-07-29T07:54:20.842Z,20.27
2022-07-29T07:57:08.066Z,20.54
2022-07-29T07:59:55.216Z,20.74
2022-07-29T08:02:43.972Z,20.23
2022-07-29T08:05:31.129Z,20.56
2022-07-29T08:08:18.588Z,20.37
2022-07-29T08:11:09.772Z,20.70
2022-07-29T08:13:57.215Z,21.18
2022-07-29T08:16:44.363Z,20.73
2022-07-29T08:19:31.346Z,21.58
2022-07-29T08:22:18.381Z,20.57
2022-07-29T08:25:05.958Z,21.14
2022-07-29T08:27:52.912Z,20.96
2022-07-29T08:30:39.850Z,20.82
2022-07-29T08:33:26.885Z,21.43
2022-07-29T08:36:14.243Z,23.68
2022-07-29T08:39:02.221Z,22.84
2022-07-29T08:41:56.596Z,21.74
2022-07-29T08:44:45.603Z,22.16
2022-07-29T08:47:32.910Z,23.54
2022-07-29T08:50:20.088Z,25.18
2022-07-29T08:53:11.516Z,24.72
2022-07-29T08:55:59.424Z,24.37
2022-07-29T08:58:52.331Z,25.37
2022-07-29T09:01:42.918Z,25.31
2022-07-29T09:04:35.584Z,25.46
2022-07-29T09:07:22.572Z,25.68
2022-07-29T09:10:10.233Z,25.93
2022-07-29T09:12:57.418Z,25.31
2022-07-29T09:15:45.822Z,26.17
2022-07-29T09:18:44.610Z,26.35
2022-07-29T09:22:00.222Z,27.66
2022-07-29T09:24:48.694Z,26.63
2022-07-29T09:27:36.691Z,26.24
2022-07-29T09:30:25.615Z,26.77
2022-07-29T09:33:18.656Z,26.46
2022-07-29T09:36:08.411Z,26.17
2022-07-29T09:39:02.068Z,28.60
2022-07-29T09:41:54.647Z,26.61
2022-07-29T09:44:49.584Z,27.29
2022-07-29T09:47:49.920Z,26.73
2022-07-29T09:50:41.533Z,26.68
2022-07-29T09:53:38.394Z,28.77
2022-07-29T09:56:42.720Z,27.15
2022-07-29T09:59:29.742Z,26.56
2022-07-29T10:02:21.948Z,25.85
2022-07-29T10:05:24.951Z,26.19
2022-07-29T10:08:15.811Z,26.22
2022-07-29T10:11:13.618Z,26.23
2022-07-29T10:14:03.724Z,26.03
2022-07-29T10:16:50.913Z,24.86
2022-07-29T10:19:39.373Z,25.73
2022-07-29T10:22:50.819Z,27.62
2022-07-29T10:25:33.857Z,29.60
2022-07-29T10:28:21.134Z,28.28
2022-07-29T10:31:14.658Z,28.81
2022-07-29T10:34:04.701Z,28.41
2022-07-29T10:37:08.518Z,27.70
2022-07-29T10:40:29.398Z,26.60
2022-07-29T10:43:20.773Z,24.01
2022-07-29T10:46:08.850Z,23.58
2022-07-29T10:49:17.535Z,23.80
2022-07-29T10:52:06.869Z,24.45
2022-07-29T10:54:54.743Z,23.77
2022-07-29T10:58:27.932Z,23.58
2022-07-29T11:01:37.344Z,24.63
2022-07-29T11:04:44.641Z,24.77
2022-07-29T11:07:45.763Z,25.18
2022-07-29T11:10:33.509Z,27.79
2022-07-29T11:13:49.229Z,25.76
2022-07-29T11:17:01.777Z,25.89
2022-07-29T11:19:52.305Z,26.40
2022-07-29T11:22:43.132Z,26.03
2022-07-29T11:25:42.522Z,25.43
2022-07-29T11:28:55.666Z,24.47
2022-07-29T11:31:46.318Z,24.90
2022-07-29T11:34:34.809Z,25.39
2022-07-29T11:37:27.793Z,25.44
2022-07-29T11:40:16.943Z,25.18
2022-07-29T11:43:07.383Z,25.10
2022-07-29T11:45:54.614Z,24.81
2022-07-29T11:48:44.755Z,25.25
2022-07-29T11:51:33.335Z,25.47
2022-07-29T11:54:57.841Z,25.56
2022-07-29T11:58:03.975Z,25.44
2022-07-29T12:00:58.565Z,24.98
2022-07-29T12:04:03.801Z,24.09
2022-07-29T12:06:55.670Z,24.17
2022-07-29T12:09:53.479Z,24.58
2022-07-29T12:12:51.845Z,24.77
2022-07-29T12:15:46.785Z,24.53
2022-07-29T12:18:34.506Z,24.17
2022-07-29T12:21:21.578Z,24.88
2022-07-29T12:24:12.782Z,24.54
2022-07-29T12:27:00.943Z,24.11
2022-07-29T12:30:01.674Z,24.69
2022-07-29T12:32:49.710Z,23.77
2022-07-29T12:35:36.884Z,24.16
2022-07-29T12:38:24.198Z,24.22
2022-07-29T12:41:11.686Z,23.69
2022-07-29T12:43:59.209Z,23.25
2022-07-29T12:46:49.436Z,23.24
2022-07-29T12:49:38.024Z,22.99
2022-07-29T12:52:25.249Z,23.19
2022-07-29T12:55:12.899Z,23.98
2022-07-29T12:58:00.048Z,23.76
2022-07-29T13:00:47.184Z,23.79
2022-07-29T13:03:57.370Z,24.00
2022-07-29T13:06:51.037Z,23.65
2022-07-29T13:09:43.675Z,24.72
2022-07-29T13:12:30.669Z,23.68
2022-07-29T13:15:17.807Z,24.02
2022-07-29T13:18:05.660Z,23.89
2022-07-29T13:20:52.592Z,23.91
2022-07-29T13:23:39.784Z,23.89
2022-07-29T13:26:26.780Z,24.95
2022-07-29T13:29:14.108Z,26.88
2022-07-29T13:32:01.404Z,27.53
2022-07-29T13:34:48.716Z,26.73
2022-07-29T13:37:39.395Z,27.20
2022-07-29T13:40:27.042Z,26.82
2022-07-29T13:43:14.101Z,27.38
2022-07-29T13:46:01.164Z,26.81
2022-07-29T13:48:48.373Z,26.50
2022-07-29T13:51:35.485Z,28.31
2022-07-29T13:54:22.592Z,26.47
2022-07-29T13:57:11.984Z,28.46
2022-07-29T13:59:59.241Z,29.59
2022-07-29T14:02:46.194Z,28.87
2022-07-29T14:05:33.305Z,27.03
2022-07-29T14:08:20.445Z,28.34
2022-07-29T14:11:07.489Z,29.50
2022-07-29T14:13:54.433Z,26.95
2022-07-29T14:16:49.016Z,26.62
2022-07-29T14:19:39.866Z,26.83
2022-07-29T14:22:26.918Z,26.09
2022-07-29T14:25:14.915Z,25.39
2022-07-29T14:28:02.842Z,25.88
2022-07-29T14:30:49.858Z,26.31
2022-07-29T14:33:36.838Z,24.90
2022-07-29T14:36:23.852Z,23.14
2022-07-29T14:39:10.929Z,23.13
2022-07-29T14:41:58.116Z,23.52
2022-07-29T14:44:45.303Z,23.21
2022-07-29T14:47:34.019Z,23.53
2022-07-29T14:50:27.576Z,22.89
2022-07-29T14:53:18.701Z,22.93
2022-07-29T14:56:33.897Z,22.70
2022-07-29T14:59:12.725Z,22.97
2022-07-29T15:02:00.077Z,22.99
2022-07-29T15:04:48.868Z,22.82
2022-07-29T15:07:36.025Z,22.65
2022-07-29T15:10:24.754Z,23.15
2022-07-29T15:13:11.876Z,23.37
2022-07-29T15:16:00.284Z,22.83
2022-07-29T15:18:47.663Z,23.30
2022-07-29T15:21:34.938Z,22.88
2022-07-29T15:24:28.728Z,22.24
2022-07-29T15:27:15.765Z,22.34
2022-07-29T15:30:02.924Z,22.10
2022-07-29T15:32:50.102Z,21.87
2022-07-29T15:35:43.174Z,21.83
2022-07-29T15:38:30.265Z,21.64
2022-07-29T15:41:17.342Z,21.52
2022-07-29T15:44:04.673Z,21.28
2022-07-29T15:47:03.863Z,20.88
2022-07-29T15:49:50.948Z,20.01
2022-07-29T15:52:38.038Z,19.37
2022-07-29T15:55:28.388Z,18.96
2022-07-29T15:58:15.457Z,18.41
2022-07-29T16:01:02.556Z,17.94
2022-07-29T16:03:49.780Z,18.18
2022-07-29T16:06:36.742Z,17.91
2022-07-29T16:09:24.216Z,17.35
2022-07-29T16:12:15.192Z,17.46
2022-07-29T16:15:07.592Z,17.41
2022-07-29T16:17:56.748Z,17.17
2022-07-29T16:20:43.889Z,17.55
2022-07-29T16:23:30.869Z,17.85
2022-07-29T16:26:18.045Z,17.86
2022-07-29T16:29:07.033Z,17.79
2022-07-29T16:31:54.139Z,17.05
2022-07-29T16:34:41.693Z,16.94
2022-07-29T16:37:33.606Z,17.54
2022-07-29T16:40:21.037Z,17.97
2022-07-29T16:43:08.960Z,17.34
2022-07-29T16:45:56.209Z,17.12
2022-07-29T16:48:43.275Z,17.07
2022-07-29T16:51:32.309Z,17.17
2022-07-29T16:54:20.202Z,17.24
2022-07-29T16:57:07.429Z,17.37
2022-07-29T16:59:54.419Z,17.33
2022-07-29T17:02:41.659Z,17.44
2022-07-29T17:05:29.166Z,17.35
2022-07-29T17:08:16.490Z,17.18
2022-07-29T17:11:03.602Z,17.16
2022-07-29T17:13:50.554Z,17.19
2022-07-29T17:16:37.735Z,17.07
2022-07-29T17:19:25.041Z,17.45
2022-07-29T17:22:18.665Z,16.98
2022-07-29T17:25:08.404Z,17.01
2022-07-29T17:28:00.475Z,17.08
2022-07-29T17:30:48.273Z,17.34
2022-07-29T17:33:36.555Z,17.14
2022-07-29T17:36:23.892Z,17.04
2022-07-29T17:39:14.060Z,17.21
2022-07-29T17:42:02.608Z,17.19
2022-07-29T17:44:49.678Z,17.25
2022-07-29T17:47:38.424Z,17.20
2022-07-29T17:50:25.790Z,17.17
2022-07-29T17:53:16.068Z,17.35
2022-07-29T17:56:05.222Z,17.40
2022-07-29T17:58:52.883Z,17.18
2022-07-29T18:01:41.554Z,17.11
2022-07-29T18:04:29.214Z,17.20
2022-07-29T18:07:16.993Z,17.39
2022-07-29T18:10:04.549Z,17.11
2022-07-29T18:12:51.576Z,17.15
2022-07-29T18:15:41.396Z,17.36
2022-07-29T18:18:28.468Z,17.15
2022-07-29T18:21:15.431Z,17.32
2022-07-29T18:24:02.489Z,17.43
2022-07-29T18:26:49.481Z,17.22
2022-07-29T18:29:36.921Z,17.45
2022-07-29T18:32:29.441Z,17.60
2022-07-29T18:35:17.336Z,18.02
2022-07-29T18:38:06.387Z,17.73
2022-07-29T18:40:53.378Z,17.76
2022-07-29T18:43:40.385Z,17.87
2022-07-29T18:46:27.489Z,18.11
2022-07-29T18:49:14.700Z,18.10
2022-07-29T18:52:01.823Z,18.22
2022-07-29T18:54:48.838Z,17.79
2022-07-29T18:57:54.834Z,17.86
2022-07-29T19:00:43.607Z,17.77
2022-07-29T19:03:30.637Z,17.66
2022-07-29T19:06:19.022Z,17.89
2022-07-29T19:09:11.203Z,17.85
2022-07-29T19:12:03.170Z,17.67
2022-07-29T19:14:50.538Z,17.82
2022-07-29T19:17:38.716Z,18.17
2022-07-29T19:20:25.676Z,17.66
2022-07-29T19:23:12.684Z,18.19
2022-07-29T19:25:59.702Z,17.83
2022-07-29T19:28:49.053Z,17.75
2022-07-29T19:31:36.221Z,17.95
2022-07-29T19:34:23.306Z,17.82
2022-07-29T19:37:10.572Z,17.71
2022-07-29T19:39:57.673Z,17.68
2022-07-29T19:42:44.638Z,17.74
2022-07-29T19:45:32.263Z,17.68
2022-07-29T19:48:19.211Z,17.59
2022-07-29T19:51:06.158Z,17.62
2022-07-29T19:53:53.150Z,17.56
2022-07-29T19:56:42.068Z,17.88
2022-07-29T19:59:29.611Z,17.74
2022-07-29T20:02:16.732Z,17.74
2022-07-29T20:05:04.715Z,17.76
2022-07-29T20:07:51.940Z,17.74
2022-07-29T20:10:38.949Z,17.69
2022-07-29T20:13:26.062Z,17.82
2022-07-29T20:16:13.171Z,17.87
2022-07-29T20:19:00.281Z,17.92
2022-07-29T20:21:47.233Z,17.70
2022-07-29T20:24:34.358Z,17.78
2022-07-29T20:27:21.761Z,17.83
2022-07-29T20:30:09.532Z,17.79
2022-07-29T20:32:58.151Z,17.60
2022-07-29T20:35:45.126Z,17.65
2022-07-29T20:38:32.073Z,17.72
2022-07-29T20:41:18.989Z,17.66
2022-07-29T20:44:06.791Z,17.69
2022-07-29T20:46:53.812Z,17.64
2022-07-29T20:49:40.785Z,17.66
2022-07-29T20:52:30.158Z,17.73
2022-07-29T20:55:17.283Z,17.67
2022-07-29T20:58:04.655Z,17.85
2022-07-29T21:00:51.787Z,17.69
2022-07-29T21:03:38.964Z,17.82
2022-07-29T21:06:25.902Z,18.00
2022-07-29T21:09:12.953Z,18.03
2022-07-29T21:12:00.712Z,18.11
2022-07-29T21:14:51.835Z,18.23
2022-07-29T21:17:46.233Z,18.40
2022-07-29T21:20:33.162Z,18.15
2022-07-29T21:23:20.326Z,18.36
2022-07-29T21:26:11.137Z,18.85
2022-07-29T21:28:59.904Z,18.87
2022-07-29T21:31:46.819Z,18.47
2022-07-29T21:34:33.999Z,18.38
2022-07-29T21:37:21.023Z,18.51
2022-07-29T21:40:08.753Z,18.69
2022-07-29T21:42:55.877Z,17.99
2022-07-29T21:45:44.166Z,18.41
2022-07-29T21:48:31.288Z,18.51
2022-07-29T21:51:18.227Z,18.48
2022-07-29T21:54:05.294Z,18.81
2022-07-29T21:56:53.473Z,18.38
2022-07-29T21:59:40.554Z,18.39
2022-07-29T22:02:27.620Z,18.37
2022-07-29T22:05:15.008Z,18.00
2022-07-29T22:08:02.594Z,18.28
2022-07-29T22:10:49.537Z,18.71
2022-07-29T22:13:37.065Z,18.60
2022-07-29T22:16:24.108Z,18.36
2022-07-29T22:19:11.788Z,17.72
2022-07-29T22:21:58.701Z,18.20
2022-07-29T22:24:45.975Z,18.04
2022-07-29T22:27:33.314Z,17.94
2022-07-29T22:30:20.300Z,17.85
2022-07-29T22:33:07.261Z,17.57
2022-07-29T22:35:54.488Z,17.74
2022-07-29T22:38:41.437Z,17.67
2022-07-29T22:41:28.366Z,17.75
2022-07-29T22:44:15.468Z,17.62
2022-07-29T22:47:04.621Z,17.63
2022-07-29T22:49:51.602Z,17.43
2022-07-29T22:52:38.692Z,17.92
2022-07-29T22:55:25.696Z,18.02
2022-07-29T22:58:12.725Z,17.76
2022-07-29T23:00:59.824Z,17.99
2022-07-29T23:03:51.310Z,17.58
2022-07-29T23:06:38.764Z,17.18
2022-07-29T23:09:25.715Z,17.31
2022-07-29T23:12:12.746Z,17.38
2022-07-29T23:14:59.953Z,17.22
2022-07-29T23:17:46.945Z,17.23
2022-07-29T23:20:33.945Z,17.35
2022-07-29T23:23:20.919Z,17.58
2022-07-29T23:26:07.916Z,17.25
2022-07-29T23:28:55.021Z,17.42
2022-07-29T23:31:42.679Z,17.24
2022-07-29T23:34:35.395Z,17.01
2022-07-29T23:37:22.514Z,16.85
2022-07-29T23:40:14.261Z,16.60
2022-07-29T23:43:01.787Z,16.49
2022-07-29T23:45:53.648Z,16.48
2022-07-29T23:48:40.849Z,16.76
2022-07-29T23:51:29.260Z,17.02
2022-07-29T23:54:16.380Z,16.76
2022-07-29T23:57:03.649Z,16.91
2022-07-29T23:59:51.388Z,16.89
